createdAt,value
2018-04-04T01:44:35.844Z,988.16
2018-04-04T01:45:36.076Z,988.10
2018-04-04T01:46:35.632Z,988.15
2018-04-04T01:47:35.241Z,988.14
2018-04-04T01:48:34.628Z,988.21
2018-04-04T01:49:34.840Z,988.34
2018-04-04T01:50:35.249Z,988.22
2018-04-04T01:51:36.138Z,988.27
2018-04-04T01:52:35.695Z,988.15
2018-04-04T01:53:35.092Z,988.23
2018-04-04T04:35:12.902Z,989.65
2018-04-04T04:36:12.478Z,989.64
2018-04-04T04:37:13.031Z,989.63
2018-04-04T04:38:12.716Z,989.66
2018-04-04T04:39:11.551Z,989.67
2018-04-04T04:40:13.528Z,989.62
2018-04-04T04:41:11.477Z,989.65
2018-04-04T04:42:11.446Z,989.67
2018-04-04T04:43:11.427Z,989.66
2018-04-04T04:44:11.480Z,989.64
2018-04-04T04:45:11.457Z,989.63
2018-04-04T04:46:11.395Z,989.65
2018-04-04T04:47:11.388Z,989.64
2018-04-04T04:48:11.379Z,989.62
2018-04-04T04:49:11.419Z,989.60
2018-04-04T04:50:11.344Z,989.58
2018-04-04T04:51:11.368Z,989.59
2018-04-04T04:52:11.326Z,989.53
2018-04-04T04:53:11.325Z,989.54
2018-04-04T04:54:11.292Z,989.54
2018-04-04T04:55:11.305Z,989.53
2018-04-04T04:56:11.255Z,989.45
2018-04-04T04:57:11.294Z,989.47
2018-04-04T04:58:11.227Z,989.42
2018-04-04T04:59:11.211Z,989.43
2018-04-04T05:00:11.198Z,989.42
2018-04-04T05:01:11.194Z,989.42
2018-04-04T05:02:11.603Z,989.45
2018-04-04T05:03:11.157Z,989.49
2018-04-04T05:04:11.161Z,989.53
2018-04-04T05:05:11.133Z,989.51
2018-04-04T05:06:11.169Z,989.53
2018-04-04T05:07:11.120Z,989.58
2018-04-04T05:08:11.170Z,989.55
2018-04-04T05:09:11.098Z,989.58
2018-04-04T05:10:11.059Z,989.54
2018-04-04T05:11:11.062Z,989.59
2018-04-04T05:12:11.060Z,989.57
2018-04-04T05:13:11.055Z,989.59
2018-04-04T05:14:11.049Z,989.57
2018-04-04T05:15:11.029Z,989.65
2018-04-04T05:16:10.997Z,989.71
2018-04-04T05:17:10.973Z,989.75
2018-04-04T05:18:11.015Z,989.71
2018-04-04T05:19:10.952Z,989.75
2018-04-04T05:20:10.939Z,989.75
2018-04-04T05:21:10.924Z,989.74
2018-04-04T05:22:10.913Z,989.75
2018-04-04T05:23:10.890Z,989.77
2018-04-04T05:24:10.932Z,989.74
2018-04-04T05:25:10.866Z,989.75
2018-04-04T05:26:10.846Z,989.74
2018-04-04T05:27:10.835Z,989.76
2018-04-04T05:28:10.834Z,989.76
2018-04-04T05:29:10.810Z,989.78
2018-04-04T05:30:11.165Z,989.75
2018-04-04T05:31:10.782Z,989.79
2018-04-04T05:32:10.777Z,989.80
2018-04-04T05:33:10.768Z,989.77
2018-04-04T05:34:10.738Z,989.74
2018-04-04T05:35:10.738Z,989.74
2018-04-04T05:36:10.728Z,989.76
2018-04-04T05:37:10.710Z,989.78
2018-04-04T05:38:10.694Z,989.84
2018-04-04T05:39:10.714Z,989.84
2018-04-04T05:40:10.677Z,989.85
2018-04-04T05:41:10.743Z,989.79
2018-04-04T05:42:10.649Z,989.78
2018-04-04T05:43:10.648Z,989.74
2018-04-04T05:44:10.617Z,989.72
2018-04-04T05:45:10.610Z,989.74
2018-04-04T05:46:10.580Z,989.74
2018-04-04T05:47:10.685Z,989.78
2018-04-04T05:48:10.565Z,989.78
2018-04-04T05:49:10.579Z,989.83
2018-04-04T05:50:10.539Z,989.82
2018-04-04T05:51:10.525Z,989.81
2018-04-04T05:52:10.528Z,989.80
2018-04-04T05:53:10.505Z,989.80
2018-04-04T05:54:10.501Z,989.82
2018-04-04T05:55:10.477Z,989.85
2018-04-04T05:56:10.691Z,989.82
2018-04-04T05:57:10.448Z,989.85
2018-04-04T05:58:10.446Z,989.82
2018-04-04T05:59:10.436Z,989.87
2018-04-04T06:00:10.420Z,989.84
2018-04-04T06:01:10.403Z,989.82
2018-04-04T06:02:10.407Z,989.77
2018-04-04T06:03:10.373Z,989.77
2018-04-04T06:04:10.347Z,989.77
2018-04-04T06:05:10.347Z,989.75
2018-04-04T06:06:10.414Z,989.76
2018-04-04T06:07:10.308Z,989.73
2018-04-04T06:08:10.349Z,989.72
2018-04-04T06:09:10.283Z,989.69
2018-04-04T06:10:10.290Z,989.69
2018-04-04T06:11:10.248Z,989.71
2018-04-04T06:12:10.674Z,989.67
2018-04-04T06:13:10.247Z,989.67
2018-04-04T06:14:10.253Z,989.67
2018-04-04T06:15:10.207Z,989.67
2018-04-04T06:16:12.203Z,989.72
2018-04-04T06:17:10.212Z,989.70
2018-04-04T06:18:10.198Z,989.72
2018-04-04T06:19:10.159Z,989.71
2018-04-04T06:20:10.152Z,989.74
2018-04-04T06:21:10.124Z,989.76
2018-04-04T06:22:10.144Z,989.73
2018-04-04T06:23:10.169Z,989.73
2018-04-04T06:24:10.109Z,989.76
2018-04-04T06:25:10.119Z,989.80
2018-04-04T06:26:10.068Z,989.77
2018-04-04T06:27:10.105Z,989.85
2018-04-04T06:28:10.083Z,989.84
2018-04-04T06:29:10.671Z,989.85
2018-04-04T06:30:10.024Z,989.86
2018-04-04T06:31:10.004Z,989.87
2018-04-04T06:32:10.059Z,989.86
2018-04-04T06:33:09.999Z,989.80
2018-04-04T06:34:09.990Z,989.82
2018-04-04T06:35:09.975Z,989.79
2018-04-04T06:36:09.965Z,989.82
2018-04-04T06:37:09.946Z,989.79
2018-04-04T06:38:09.936Z,989.79
2018-04-04T06:39:09.925Z,989.73
2018-04-04T06:40:09.906Z,989.73
2018-04-04T06:41:09.907Z,989.72
2018-04-04T06:42:09.873Z,989.68
2018-04-04T06:43:09.901Z,989.66
2018-04-04T06:44:09.827Z,989.66
2018-04-04T06:45:09.854Z,989.65
2018-04-04T06:46:14.692Z,989.63
2018-04-04T06:47:09.836Z,989.60
2018-04-04T06:48:09.810Z,989.63
2018-04-04T06:49:09.803Z,989.61
2018-04-04T06:50:09.776Z,989.61
2018-04-04T06:51:09.755Z,989.59
2018-04-04T06:52:09.755Z,989.61
2018-04-04T06:53:09.768Z,989.63
2018-04-04T06:54:10.219Z,989.65
2018-04-04T06:55:09.712Z,989.69
2018-04-04T06:56:09.708Z,989.74
2018-04-04T06:57:09.702Z,989.74
2018-04-04T06:58:09.672Z,989.75
2018-04-04T06:59:09.699Z,989.67
2018-04-04T07:00:10.167Z,989.68
2018-04-04T07:01:09.653Z,989.71
2018-04-04T07:02:09.646Z,989.68
2018-04-04T07:03:09.607Z,989.65
2018-04-04T07:04:09.620Z,989.61
2018-04-04T07:05:09.652Z,989.65
2018-04-04T07:06:09.567Z,989.64
2018-04-04T07:07:09.570Z,989.67
2018-04-04T07:08:09.569Z,989.66
2018-04-04T07:09:09.576Z,989.66
2018-04-04T07:10:09.535Z,989.68
2018-04-04T07:11:09.552Z,989.72
2018-04-04T07:12:09.523Z,989.73
2018-04-04T07:13:09.532Z,989.71
2018-04-04T07:14:09.488Z,989.71
2018-04-04T07:15:09.471Z,989.70
2018-04-04T07:16:09.530Z,989.67
2018-04-04T07:17:09.504Z,989.63
2018-04-04T07:18:09.495Z,989.66
2018-04-04T07:19:09.499Z,989.65
2018-04-04T07:20:09.444Z,989.66
2018-04-04T07:21:09.407Z,989.74
2018-04-04T07:22:09.411Z,989.72
2018-04-04T07:23:09.406Z,989.70
2018-04-04T07:24:09.371Z,989.64
2018-04-04T07:25:09.384Z,989.60
2018-04-04T07:26:09.405Z,989.56
2018-04-04T07:27:09.350Z,989.54
2018-04-04T07:28:09.359Z,989.54
2018-04-04T07:29:09.348Z,989.55
2018-04-04T07:30:09.330Z,989.51
2018-04-04T07:31:09.335Z,989.50
2018-04-04T07:32:09.313Z,989.51
2018-04-04T07:33:09.321Z,989.47
2018-04-04T07:34:09.277Z,989.45
2018-04-04T07:35:09.313Z,989.50
2018-04-04T07:36:09.247Z,989.52
2018-04-04T07:37:09.284Z,989.61
2018-04-04T07:38:09.245Z,989.54
2018-04-04T07:39:09.226Z,989.50
2018-04-04T07:40:09.235Z,989.44
2018-04-04T07:41:09.300Z,989.40
2018-04-04T07:42:09.192Z,989.43
2018-04-04T07:43:09.192Z,989.44
2018-04-04T07:44:09.205Z,989.51
2018-04-04T07:45:09.169Z,989.48
2018-04-04T07:46:09.152Z,989.56
2018-04-04T07:47:09.183Z,989.51
2018-04-04T07:48:09.153Z,989.51
2018-04-04T07:49:09.151Z,989.48
2018-04-04T07:50:09.126Z,989.49
2018-04-04T07:51:09.153Z,989.49
2018-04-04T07:52:09.126Z,989.55
2018-04-04T07:53:09.692Z,989.54
2018-04-04T07:54:09.076Z,989.54
2018-04-04T07:55:09.689Z,989.56
2018-04-04T07:56:09.090Z,989.55
2018-04-04T07:57:09.113Z,989.63
2018-04-04T07:58:09.685Z,989.71
2018-04-04T07:59:09.830Z,989.69
2018-04-04T08:00:09.043Z,989.69
2018-04-04T08:01:11.116Z,989.73
2018-04-04T08:02:09.005Z,989.71
2018-04-04T08:03:09.004Z,989.72
2018-04-04T08:04:09.245Z,989.71
2018-04-04T08:05:09.052Z,989.73
2018-04-04T08:06:09.041Z,989.74
2018-04-04T08:07:09.005Z,989.74
2018-04-04T08:08:08.989Z,989.74
2018-04-04T08:09:08.957Z,989.76
2018-04-04T08:10:08.965Z,989.73
2018-04-04T08:11:08.967Z,989.75
2018-04-04T08:12:08.959Z,989.72
2018-04-04T08:13:08.918Z,989.67
2018-04-04T08:14:09.111Z,989.66
2018-04-04T08:15:08.982Z,989.63
2018-04-04T08:16:08.950Z,989.62
2018-04-04T08:17:08.910Z,989.57
2018-04-04T08:18:08.886Z,989.55
2018-04-04T08:19:08.912Z,989.51
2018-04-04T08:20:08.903Z,989.56
2018-04-04T08:21:08.902Z,989.52
2018-04-04T08:22:08.877Z,989.49
2018-04-04T08:23:08.855Z,989.51
2018-04-04T08:24:08.840Z,989.48
2018-04-04T08:25:08.804Z,989.50
2018-04-04T08:26:08.803Z,989.50
2018-04-04T08:27:08.904Z,989.47
2018-04-04T08:28:09.713Z,989.44
2018-04-04T08:29:08.789Z,989.45
2018-04-04T08:30:08.802Z,989.48
2018-04-04T08:31:08.765Z,989.47
2018-04-04T08:32:08.809Z,989.51
2018-04-04T08:33:08.800Z,989.53
2018-04-04T08:34:08.731Z,989.57
2018-04-04T08:35:08.769Z,989.56
2018-04-04T08:36:08.698Z,989.59
2018-04-04T08:37:08.715Z,989.57
2018-04-04T08:38:08.707Z,989.56
2018-04-04T08:39:08.681Z,989.58
2018-04-04T08:40:10.204Z,989.55
2018-04-04T08:41:08.713Z,989.55
2018-04-04T08:42:08.697Z,989.55
2018-04-04T08:43:08.653Z,989.52
2018-04-04T08:44:08.640Z,989.55
2018-04-04T08:45:08.636Z,989.57
2018-04-04T08:46:08.642Z,989.56
2018-04-04T08:47:08.672Z,989.58
2018-04-04T08:48:08.610Z,989.54
2018-04-04T08:49:08.625Z,989.57
2018-04-04T08:50:08.641Z,989.53
2018-04-04T08:51:08.582Z,989.56
2018-04-04T08:52:08.759Z,989.53
2018-04-04T08:53:08.598Z,989.55
2018-04-04T08:54:08.562Z,989.54
2018-04-04T08:55:09.113Z,989.53
2018-04-04T08:56:08.922Z,989.57
2018-04-04T08:57:08.538Z,989.58
2018-04-04T08:58:08.788Z,989.53
2018-04-04T08:59:08.515Z,989.56
2018-04-04T09:00:08.531Z,989.59
2018-04-04T09:01:08.536Z,989.56
2018-04-04T09:02:08.514Z,989.58
2018-04-04T09:03:08.503Z,989.54
2018-04-04T09:04:08.526Z,989.59
2018-04-04T09:05:08.473Z,989.62
2018-04-04T09:06:08.494Z,989.55
2018-04-04T09:07:08.450Z,989.57
2018-04-04T09:08:08.451Z,989.55
2018-04-04T09:09:08.537Z,989.53
2018-04-04T09:10:08.451Z,989.52
2018-04-04T09:11:08.565Z,989.55
2018-04-04T09:12:08.559Z,989.56
2018-04-04T09:13:08.424Z,989.49
2018-04-04T09:14:08.424Z,989.54
2018-04-04T09:15:08.437Z,989.55
2018-04-04T09:16:08.414Z,989.55
2018-04-04T09:17:08.398Z,989.54
2018-04-04T09:18:08.383Z,989.49
2018-04-04T09:19:08.406Z,989.51
2018-04-04T09:20:08.418Z,989.48
2018-04-04T09:21:08.358Z,989.54
2018-04-04T09:22:08.335Z,989.51
2018-04-04T09:23:08.345Z,989.49
2018-04-04T09:24:08.401Z,989.53
2018-04-04T09:25:08.414Z,989.50
2018-04-04T09:26:08.313Z,989.52
2018-04-04T09:27:08.296Z,989.52
2018-04-04T09:28:08.309Z,989.55
2018-04-04T09:29:08.285Z,989.48
2018-04-04T09:30:08.285Z,989.46
2018-04-04T09:31:08.295Z,989.46
2018-04-04T09:32:08.300Z,989.41
2018-04-04T09:33:09.815Z,989.49
2018-04-04T09:34:08.262Z,989.53
2018-04-04T09:35:08.377Z,989.51
2018-04-04T09:36:08.225Z,989.49
2018-04-04T09:37:08.270Z,989.44
2018-04-04T09:38:08.210Z,989.51
2018-04-04T09:39:08.214Z,989.50
2018-04-04T09:40:08.217Z,989.49
2018-04-04T09:41:08.192Z,989.44
2018-04-04T09:42:08.228Z,989.46
2018-04-04T09:43:08.199Z,989.50
2018-04-04T09:44:08.187Z,989.47
2018-04-04T09:45:08.164Z,989.52
2018-04-04T09:46:08.150Z,989.52
2018-04-04T09:47:08.128Z,989.51
2018-04-04T09:48:08.153Z,989.45
2018-04-04T09:49:08.140Z,989.48
2018-04-04T09:50:08.108Z,989.48
2018-04-04T09:51:08.158Z,989.45
2018-04-04T09:52:08.087Z,989.47
2018-04-04T09:53:08.080Z,989.50
2018-04-04T09:54:08.072Z,989.44
2018-04-04T09:55:08.060Z,989.41
2018-04-04T09:56:08.074Z,989.38
2018-04-04T09:57:08.059Z,989.35
2018-04-04T09:58:08.073Z,989.36
2018-04-04T09:59:08.016Z,989.35
2018-04-04T10:00:08.067Z,989.30
2018-04-04T10:01:08.012Z,989.31
2018-04-04T10:02:08.009Z,989.25
2018-04-04T10:03:07.982Z,989.26
2018-04-04T10:04:07.989Z,989.23
2018-04-04T10:05:08.000Z,989.24
2018-04-04T10:06:08.312Z,989.21
2018-04-04T10:07:07.972Z,989.14
2018-04-04T10:08:07.939Z,989.18
2018-04-04T10:09:07.930Z,989.15
2018-04-04T10:10:07.940Z,989.12
2018-04-04T10:11:07.940Z,989.10
2018-04-04T10:12:07.948Z,989.09
2018-04-04T10:13:07.907Z,989.09
2018-04-04T10:14:07.981Z,989.06
2018-04-04T10:15:07.888Z,989.07
2018-04-04T10:16:07.889Z,989.09
2018-04-04T10:17:07.869Z,989.05
2018-04-04T10:18:07.853Z,989.07
2018-04-04T10:19:07.862Z,989.05
2018-04-04T10:20:07.827Z,989.00
2018-04-04T10:21:07.850Z,989.01
2018-04-04T10:22:07.848Z,988.98
2018-04-04T10:23:07.801Z,988.93
2018-04-04T10:24:07.784Z,988.92
2018-04-04T10:25:08.740Z,988.91
2018-04-04T10:26:07.769Z,988.89
2018-04-04T10:27:07.759Z,988.85
2018-04-04T10:28:07.750Z,988.83
2018-04-04T10:29:07.743Z,988.86
2018-04-04T10:30:07.787Z,988.85
2018-04-04T10:31:07.724Z,988.87
2018-04-04T10:32:07.725Z,988.82
2018-04-04T10:33:07.701Z,988.78
2018-04-04T10:34:12.250Z,988.75
2018-04-04T10:35:07.693Z,988.70
2018-04-04T10:36:07.681Z,988.70
2018-04-04T10:37:07.687Z,988.67
2018-04-04T10:38:07.703Z,988.68
2018-04-04T10:39:07.649Z,988.64
2018-04-04T10:40:07.708Z,988.60
2018-04-04T10:41:07.630Z,988.58
2018-04-04T10:42:07.642Z,988.61
2018-04-04T10:43:07.631Z,988.58
2018-04-04T10:44:07.615Z,988.51
2018-04-04T10:45:07.608Z,988.49
2018-04-04T10:46:07.667Z,988.49
2018-04-04T10:47:07.573Z,988.50
2018-04-04T10:48:07.571Z,988.55
2018-04-04T10:49:07.553Z,988.56
2018-04-04T10:50:07.544Z,988.59
2018-04-04T10:51:07.588Z,988.60
2018-04-04T10:52:07.553Z,988.61
2018-04-04T10:53:07.551Z,988.61
2018-04-04T10:54:07.515Z,988.60
2018-04-04T10:55:07.531Z,988.64
2018-04-04T10:56:07.508Z,988.64
2018-04-04T10:57:07.502Z,988.66
2018-04-04T10:58:07.499Z,988.67
2018-04-04T10:59:07.465Z,988.68
2018-04-04T11:00:07.509Z,988.66
2018-04-04T11:01:07.445Z,988.64
2018-04-04T11:02:07.554Z,988.64
2018-04-04T11:03:07.577Z,988.62
2018-04-04T11:04:07.432Z,988.61
2018-04-04T11:05:07.482Z,988.54
2018-04-04T11:06:07.431Z,988.55
2018-04-04T11:07:07.412Z,988.55
2018-04-04T11:08:07.433Z,988.56
2018-04-04T11:09:07.379Z,988.58
2018-04-04T11:10:07.372Z,988.60
2018-04-04T11:11:07.377Z,988.59
2018-04-04T11:12:07.346Z,988.60
2018-04-04T11:13:07.371Z,988.61
2018-04-04T11:14:07.339Z,988.62
2018-04-04T11:15:07.331Z,988.61
2018-04-04T11:16:07.354Z,988.67
2018-04-04T11:17:07.291Z,988.66
2018-04-04T11:18:07.310Z,988.67
2018-04-04T11:19:07.304Z,988.59
2018-04-04T11:20:07.279Z,988.61
2018-04-04T11:21:07.270Z,988.57
2018-04-04T11:22:07.290Z,988.55
2018-04-04T11:23:07.249Z,988.54
2018-04-04T11:24:07.257Z,988.47
2018-04-04T11:25:07.289Z,988.47
2018-04-04T11:26:07.225Z,988.43
2018-04-04T11:27:07.226Z,988.42
2018-04-04T11:28:07.192Z,988.43
2018-04-04T11:29:07.190Z,988.45
2018-04-04T11:30:07.204Z,988.47
2018-04-04T11:31:07.201Z,988.45
2018-04-04T11:32:07.153Z,988.47
2018-04-04T11:33:07.177Z,988.46
2018-04-04T11:34:07.144Z,988.43
2018-04-04T11:35:07.179Z,988.39
2018-04-04T11:36:07.131Z,988.44
2018-04-04T11:37:07.188Z,988.48
2018-04-04T11:38:07.097Z,988.49
2018-04-04T11:39:07.108Z,988.52
2018-04-04T11:40:07.310Z,988.52
2018-04-04T11:41:07.085Z,988.56
2018-04-04T11:42:07.091Z,988.58
2018-04-04T11:43:07.124Z,988.61
2018-04-04T11:44:07.056Z,988.58
2018-04-04T11:45:07.051Z,988.48
2018-04-04T11:46:07.021Z,988.48
2018-04-04T11:47:07.785Z,988.49
2018-04-04T11:48:07.060Z,988.45
2018-04-04T11:49:06.999Z,988.42
2018-04-04T11:50:06.987Z,988.39
2018-04-04T11:51:07.768Z,988.40
2018-04-04T11:52:06.979Z,988.40
2018-04-04T11:53:07.304Z,988.41
2018-04-04T11:54:07.028Z,988.41
2018-04-04T11:55:07.649Z,988.38
2018-04-04T11:56:06.962Z,988.33
2018-04-04T11:57:06.928Z,988.33
2018-04-04T11:58:06.923Z,988.37
2018-04-04T11:59:06.919Z,988.36
2018-04-04T12:00:06.953Z,988.34
2018-04-04T12:01:06.907Z,988.34
2018-04-04T12:02:06.903Z,988.33
2018-04-04T12:03:06.885Z,988.29
2018-04-04T12:04:06.882Z,988.32
2018-04-04T12:05:06.895Z,988.28
2018-04-04T12:06:06.889Z,988.28
2018-04-04T12:07:06.857Z,988.23
2018-04-04T12:08:06.840Z,988.22
2018-04-04T12:09:06.834Z,988.18
2018-04-04T12:10:06.835Z,988.14
2018-04-04T12:11:06.866Z,988.18
2018-04-04T12:12:06.836Z,988.10
2018-04-04T12:13:06.826Z,988.13
2018-04-04T12:14:06.804Z,988.13
2018-04-04T12:15:06.782Z,988.06
2018-04-04T12:16:06.799Z,988.01
2018-04-04T12:17:06.784Z,988.03
2018-04-04T12:18:06.772Z,987.99
2018-04-04T12:19:06.769Z,988.05
2018-04-04T12:20:06.753Z,988.04
2018-04-04T12:21:07.122Z,988.04
2018-04-04T12:22:06.742Z,988.00
2018-04-04T12:23:06.747Z,988.07
2018-04-04T12:24:06.728Z,988.03
2018-04-04T12:25:06.707Z,988.02
2018-04-04T12:26:06.700Z,987.98
2018-04-04T12:27:06.750Z,988.01
2018-04-04T12:28:06.680Z,987.94
2018-04-04T12:29:06.696Z,987.91
2018-04-04T12:30:06.691Z,987.93
2018-04-04T12:31:06.827Z,987.94
2018-04-04T12:32:06.657Z,987.87
2018-04-04T12:33:06.659Z,987.92
2018-04-04T12:34:06.651Z,987.91
2018-04-04T12:35:06.652Z,987.92
2018-04-04T12:36:06.630Z,987.86
2018-04-04T12:37:06.681Z,987.85
2018-04-04T12:38:06.632Z,987.84
2018-04-04T12:39:06.638Z,987.84
2018-04-04T12:40:06.610Z,987.85
2018-04-04T12:41:06.582Z,987.82
2018-04-04T12:42:06.593Z,987.80
2018-04-04T12:43:06.591Z,987.83
2018-04-04T12:44:06.565Z,987.82
2018-04-04T12:45:06.575Z,987.86
2018-04-04T12:46:06.568Z,987.86
2018-04-04T12:47:06.549Z,987.87
2018-04-04T12:48:06.580Z,987.87
2018-04-04T12:49:06.565Z,987.86
2018-04-04T12:50:06.533Z,987.87
2018-04-04T12:51:06.532Z,987.86
2018-04-04T12:52:06.529Z,987.83
2018-04-04T12:53:06.512Z,987.87
2018-04-04T12:54:06.546Z,987.83
2018-04-04T12:55:06.562Z,987.86
2018-04-04T12:56:06.502Z,987.85
2018-04-04T12:57:06.548Z,987.83
2018-04-04T12:58:06.470Z,987.85
2018-04-04T12:59:06.502Z,987.87
2018-04-04T13:00:06.480Z,987.85
2018-04-04T13:01:06.468Z,987.82
2018-04-04T13:02:06.491Z,987.77
2018-04-04T13:04:33.603Z,987.71
2018-04-04T13:04:41.438Z,987.71
2018-04-04T13:05:34.563Z,987.76
2018-04-04T13:06:35.056Z,987.68
2018-04-04T13:07:35.253Z,987.67
2018-04-04T13:08:35.396Z,987.71
2018-04-04T13:09:35.490Z,987.66
2018-04-04T13:10:34.071Z,987.68
2018-04-04T13:11:33.963Z,987.74
2018-04-04T13:12:33.999Z,987.68
2018-04-04T13:13:36.102Z,987.69
2018-04-04T13:14:33.989Z,987.61
2018-04-04T13:15:33.936Z,987.59
2018-04-04T13:16:33.925Z,987.58
2018-04-04T13:17:33.938Z,987.54
2018-04-04T13:18:33.910Z,987.54
2018-04-04T13:19:33.916Z,987.58
2018-04-04T13:20:33.904Z,987.51
2018-04-04T13:21:33.908Z,987.55
2018-04-04T13:22:33.872Z,987.49
2018-04-04T13:23:33.875Z,987.51
2018-04-04T13:24:33.879Z,987.39
2018-04-04T13:25:33.852Z,987.45
2018-04-04T13:26:33.836Z,987.42
2018-04-04T13:27:33.845Z,987.38
2018-04-04T13:28:33.854Z,987.34
2018-04-04T13:29:33.922Z,987.38
2018-04-04T13:30:33.848Z,987.37
2018-04-04T13:31:33.832Z,987.37
2018-04-04T13:32:33.811Z,987.34
2018-04-04T13:33:33.810Z,987.37
2018-04-04T13:34:33.790Z,987.34
2018-04-04T13:35:33.802Z,987.34
2018-04-04T13:36:33.799Z,987.28
2018-04-04T13:37:33.809Z,987.24
2018-04-04T13:38:33.778Z,987.23
2018-04-04T13:39:33.776Z,987.22
2018-04-04T13:40:33.753Z,987.22
2018-04-04T13:41:33.759Z,987.20
2018-04-04T13:42:33.789Z,987.18
2018-04-04T13:43:33.743Z,987.17
2018-04-04T13:44:33.718Z,987.13
2018-04-04T13:45:33.720Z,987.15
2018-04-04T13:46:33.709Z,987.17
2018-04-04T13:47:33.718Z,987.12
2018-04-04T13:48:33.727Z,987.14
2018-04-04T13:49:33.685Z,987.14
2018-04-04T13:50:33.685Z,987.14
2018-04-04T13:51:33.698Z,987.13
2018-04-04T13:52:33.756Z,987.17
2018-04-04T13:53:33.663Z,987.17
2018-04-04T13:54:33.749Z,987.13
2018-04-04T13:55:33.653Z,987.12
2018-04-04T13:56:33.647Z,987.16
2018-04-04T13:57:33.653Z,987.16
2018-04-04T13:58:33.675Z,987.10
2018-04-04T13:59:33.685Z,987.07
2018-04-04T14:00:33.642Z,987.08
2018-04-04T14:01:33.603Z,987.10
2018-04-04T14:02:33.610Z,987.12
2018-04-04T14:03:33.739Z,987.10
2018-04-04T14:04:33.588Z,987.12
2018-04-04T14:05:33.584Z,987.09
2018-04-04T14:06:33.576Z,987.13
2018-04-04T14:07:33.557Z,987.14
2018-04-04T14:08:33.586Z,987.09
2018-04-04T14:09:33.540Z,987.14
2018-04-04T14:10:33.535Z,987.06
2018-04-04T14:11:33.538Z,987.06
2018-04-04T14:12:33.538Z,987.08
2018-04-04T14:13:33.542Z,987.07
2018-04-04T14:14:33.529Z,987.10
2018-04-04T14:15:33.510Z,987.16
2018-04-04T14:16:33.543Z,987.15
2018-04-04T14:17:33.503Z,987.11
2018-04-04T14:18:33.501Z,987.03
2018-04-04T14:19:33.485Z,987.04
2018-04-04T14:20:33.464Z,987.06
2018-04-04T14:21:33.450Z,987.09
2018-04-04T14:22:33.442Z,987.05
2018-04-04T14:23:33.473Z,987.13
2018-04-04T14:24:33.501Z,987.06
2018-04-04T14:25:33.409Z,987.12
2018-04-04T14:26:33.434Z,987.10
2018-04-04T14:27:33.412Z,987.12
2018-04-04T14:28:33.389Z,987.05
2018-04-04T14:29:33.421Z,987.08
2018-04-04T14:30:33.444Z,987.05
2018-04-04T14:31:33.374Z,987.05
2018-04-04T14:32:33.366Z,987.12
2018-04-04T14:33:33.366Z,987.15
2018-04-04T14:34:33.333Z,987.15
2018-04-04T14:35:33.352Z,987.10
2018-04-04T14:36:33.353Z,987.06
2018-04-04T14:37:33.316Z,987.10
2018-04-04T14:38:33.298Z,987.10
2018-04-04T14:39:33.290Z,987.13
2018-04-04T14:40:33.273Z,987.09
2018-04-04T14:41:33.433Z,987.15
2018-04-04T14:42:33.268Z,987.16
2018-04-04T14:43:33.253Z,987.14
2018-04-04T14:44:33.258Z,987.16
2018-04-04T14:45:33.429Z,987.16
2018-04-04T14:46:33.220Z,987.10
2018-04-04T14:47:33.258Z,987.12
2018-04-04T14:48:33.201Z,987.11
2018-04-04T14:49:33.189Z,987.10
2018-04-04T14:50:33.200Z,987.08
2018-04-04T14:51:33.182Z,987.11
2018-04-04T14:52:33.191Z,987.09
2018-04-04T14:53:33.154Z,987.08
2018-04-04T14:54:33.139Z,987.05
2018-04-04T14:55:33.199Z,987.08
2018-04-04T14:56:33.142Z,987.08
2018-04-04T14:57:33.163Z,987.07
2018-04-04T14:58:33.102Z,987.11
2018-04-04T14:59:33.482Z,987.06
2018-04-04T15:00:33.081Z,987.05
2018-04-04T15:01:33.082Z,987.03
2018-04-04T15:02:33.059Z,987.02
2018-04-04T15:03:33.075Z,987.01
2018-04-04T15:04:33.047Z,987.00
2018-04-04T15:05:33.057Z,987.07
2018-04-04T15:06:33.026Z,987.02
2018-04-04T15:07:33.010Z,987.13
2018-04-04T15:08:33.024Z,987.09
2018-04-04T15:09:33.006Z,987.10
2018-04-04T15:10:33.009Z,987.05
2018-04-04T15:11:32.994Z,987.07
2018-04-04T15:12:32.971Z,987.10
2018-04-04T15:13:32.978Z,987.07
2018-04-04T15:14:32.965Z,987.03
2018-04-04T15:15:33.017Z,987.04
2018-04-04T15:16:32.944Z,987.05
2018-04-04T15:17:32.936Z,987.06
2018-04-04T15:18:32.902Z,987.02
2018-04-04T15:19:32.921Z,987.02
2018-04-04T15:20:32.888Z,987.10
2018-04-04T15:21:32.937Z,987.04
2018-04-04T15:22:32.944Z,987.00
2018-04-04T15:23:32.880Z,987.06
2018-04-04T15:24:32.843Z,987.07
2018-04-04T15:25:32.832Z,987.03
2018-04-04T15:26:32.838Z,987.04
2018-04-04T15:27:32.872Z,987.03
2018-04-04T15:28:32.817Z,987.05
2018-04-04T15:29:32.809Z,987.05
2018-04-04T15:30:32.794Z,986.99
2018-04-04T15:31:32.808Z,986.99
2018-04-04T15:32:32.771Z,986.97
2018-04-04T15:33:32.769Z,986.98
2018-04-04T15:34:32.754Z,987.01
2018-04-04T15:35:32.734Z,987.03
2018-04-04T15:36:32.742Z,986.96
2018-04-04T15:37:32.721Z,986.98
2018-04-04T15:38:32.699Z,986.95
2018-04-04T15:39:32.692Z,986.96
2018-04-04T15:40:32.683Z,986.97
2018-04-04T15:41:32.683Z,986.95
2018-04-04T15:42:32.665Z,986.91
2018-04-04T15:43:32.663Z,986.92
2018-04-04T15:44:32.620Z,986.96
2018-04-04T15:45:32.638Z,986.93
2018-04-04T15:46:32.624Z,986.91
2018-04-04T15:47:32.647Z,986.98
2018-04-04T15:48:32.604Z,986.93
2018-04-04T15:49:32.590Z,986.91
2018-04-04T15:50:32.570Z,986.96
2018-04-04T15:51:32.577Z,986.99
2018-04-04T15:52:32.582Z,986.96
2018-04-04T15:53:32.605Z,986.95
2018-04-04T15:54:32.542Z,986.93
2018-04-04T15:55:32.522Z,986.96
2018-04-04T15:56:32.497Z,986.97
2018-04-04T15:57:32.509Z,986.96
2018-04-04T15:58:32.483Z,986.92
2018-04-04T15:59:32.504Z,986.86
2018-04-04T16:00:32.467Z,986.83
2018-04-04T16:01:32.450Z,986.84
2018-04-04T16:02:32.458Z,986.86
2018-04-04T16:03:32.440Z,986.88
2018-04-04T16:04:32.478Z,986.93
2018-04-04T16:05:32.429Z,986.85
2018-04-04T16:06:32.413Z,986.84
2018-04-04T16:07:32.399Z,986.83
2018-04-04T16:08:32.416Z,986.75
2018-04-04T16:09:32.378Z,986.70
2018-04-04T16:10:32.410Z,986.70
2018-04-04T16:11:32.358Z,986.62
2018-04-04T16:12:32.358Z,986.62
2018-04-04T16:13:32.382Z,986.54
2018-04-04T16:14:32.341Z,986.43
2018-04-04T16:15:32.370Z,986.44
2018-04-04T16:16:32.342Z,986.34
2018-04-04T16:17:32.333Z,986.36
2018-04-04T16:18:32.331Z,986.34
2018-04-04T16:19:32.305Z,986.36
2018-04-04T16:20:32.362Z,986.37
2018-04-04T16:21:32.286Z,986.38
2018-04-04T16:22:32.279Z,986.36
2018-04-04T16:23:32.269Z,986.40
2018-04-04T16:24:32.274Z,986.41
2018-04-04T16:25:32.266Z,986.44
2018-04-04T16:26:32.292Z,986.42
2018-04-04T16:27:32.258Z,986.45
2018-04-04T16:28:32.233Z,986.50
2018-04-04T16:29:32.207Z,986.49
2018-04-04T16:30:32.216Z,986.47
2018-04-04T16:31:32.216Z,986.56
2018-04-04T16:32:32.257Z,986.61
2018-04-04T16:33:32.183Z,986.69
2018-04-04T16:34:32.172Z,986.78
2018-04-04T16:35:32.165Z,986.83
2018-04-04T16:36:32.144Z,986.87
2018-04-04T16:37:32.140Z,986.85
2018-04-04T16:38:32.213Z,986.85
2018-04-04T16:39:32.146Z,986.83
2018-04-04T16:40:32.108Z,986.85
2018-04-04T16:41:32.106Z,986.93
2018-04-04T16:42:32.088Z,986.98
2018-04-04T16:43:32.083Z,987.05
2018-04-04T16:44:32.100Z,987.08
2018-04-04T16:45:32.094Z,987.07
2018-04-04T16:46:32.051Z,987.11
2018-04-04T16:47:32.063Z,987.09
2018-04-04T16:48:32.045Z,987.06
2018-04-04T16:49:32.037Z,987.08
2018-04-04T16:50:32.024Z,987.07
2018-04-04T16:51:32.031Z,987.09
2018-04-04T16:52:32.020Z,987.01
2018-04-04T16:53:31.997Z,987.04